Time;durP1;ratioP1;P1;durP2;ratioP2;P2;SDS_P1;SDS_P2;PMS_P1;PMS_P2;Temp;Humidity;BMP_temperature;BMP_pressure;BME280_temperature;BME280_humidity;BME280_pressure;Samples;Min_cycle;Max_cycle;Signal;HPM_P1;HPM_P2
2021/12/04 00:01:50;;;;;;;64.75;27.90;;;;;;;4.45;96.84;100065.06;5040997;28;20049;-79
2021/12/04 00:04:21;;;;;;;58.90;27.35;;;;;;;4.43;96.88;100062.50;5024625;28;20059;-79
2021/12/04 00:06:48;;;;;;;62.75;26.83;;;;;;;4.45;96.82;100061.63;5025840;28;20110;-79
2021/12/04 00:09:15;;;;;;;52.33;26.50;;;;;;;4.44;96.77;100053.00;5058005;28;20041;-79
2021/12/04 00:11:50;;;;;;;66.40;28.58;;;;;;;4.43;96.74;100046.94;5007144;28;20037;-79
2021/12/04 00:14:16;;;;;;;62.95;29.35;;;;;;;4.45;96.86;100046.06;5025899;28;20112;-79
2021/12/04 00:16:41;;;;;;;70.50;31.08;;;;;;;4.43;96.80;100041.75;5024345;28;20029;-79
2021/12/04 00:19:07;;;;;;;56.90;27.95;;;;;;;4.45;96.79;100036.53;5023892;28;20040;-78
2021/12/04 00:21:32;;;;;;;63.15;28.23;;;;;;;4.47;96.84;100033.91;5023450;28;20240;-79
2021/12/04 00:23:57;;;;;;;59.80;28.63;;;;;;;4.46;96.91;100020.09;5015419;28;20060;-79
2021/12/04 00:26:23;;;;;;;65.72;29.25;;;;;;;4.48;96.98;100025.25;5022122;28;20360;-79
2021/12/04 00:28:48;;;;;;;69.70;29.08;;;;;;;4.50;96.93;100026.06;5041404;28;20337;-79
2021/12/04 00:31:14;;;;;;;73.10;29.33;;;;;;;4.49;96.87;100014.81;5058798;28;20397;-79
2021/12/04 00:33:43;;;;;;;65.75;27.15;;;;;;;4.49;96.92;100012.22;5025243;28;20047;-79
2021/12/04 00:36:13;;;;;;;64.43;26.35;;;;;;;4.50;96.92;100010.50;5059776;28;20095;-79
2021/12/04 00:49:18;;;;;;;76.35;32.75;;;;;;;4.47;96.96;100016.59;5031308;28;20119;-79
2021/12/04 00:51:54;;;;;;;83.85;35.90;;;;;;;4.48;96.92;100025.25;5009358;28;20036;-79
2021/12/04 00:54:21;;;;;;;83.60;33.38;;;;;;;4.46;96.84;100020.09;5026765;28;20051;-79
2021/12/04 00:56:47;;;;;;;81.47;34.20;;;;;;;4.46;96.93;100022.69;5058174;28;20107;-79
2021/12/04 00:59:12;;;;;;;94.38;36.38;;;;;;;4.46;96.92;100022.69;5059852;28;20259;-79
2021/12/04 01:01:39;;;;;;;76.20;32.83;;;;;;;4.46;97.01;100021.81;5041259;28;20099;-79
2021/12/04 01:04:05;;;;;;;92.50;37.22;;;;;;;4.47;97.04;100020.94;5059712;28;20076;-79
2021/12/04 01:06:30;;;;;;;75.20;32.70;;;;;;;4.46;97.05;100009.72;5042070;28;20066;-79
2021/12/04 01:08:56;;;;;;;81.13;32.83;;;;;;;4.47;97.19;100003.63;5059460;28;20052;-79
2021/12/04 01:11:21;;;;;;;82.15;34.83;;;;;;;4.48;97.19;100007.09;5067989;28;20032;-79
2021/12/04 01:13:46;;;;;;;79.53;32.85;;;;;;;4.49;97.05;100004.44;5024748;28;20047;-79
2021/12/04 01:16:14;;;;;;;76.53;30.90;;;;;;;4.51;97.17;99999.22;5060368;28;20236;-79
2021/12/04 01:18:39;;;;;;;82.68;32.70;;;;;;;4.49;97.13;99999.25;5059031;28;20412;-79
2021/12/04 01:21:05;;;;;;;76.10;30.60;;;;;;;4.49;97.06;99991.47;5041754;28;20112;-79
2021/12/04 01:23:30;;;;;;;83.88;29.80;;;;;;;4.50;97.15;99992.34;5025157;28;20388;-79
2021/12/04 01:25:56;;;;;;;82.20;29.75;;;;;;;4.51;97.08;99991.44;5059694;28;20032;-79
2021/12/04 01:28:21;;;;;;;77.22;28.38;;;;;;;4.53;97.08;99987.03;5059304;28;20025;-79
2021/12/04 01:30:46;;;;;;;79.78;29.08;;;;;;;4.54;97.18;99975.78;5058649;28;20067;-79
2021/12/04 01:33:13;;;;;;;76.82;27.38;;;;;;;4.52;97.06;99972.41;5040673;28;20063;-79
2021/12/04 01:35:38;;;;;;;90.25;30.33;;;;;;;4.54;96.99;99973.19;5041436;28;20233;-79
2021/12/04 01:38:04;;;;;;;82.28;26.50;;;;;;;4.53;97.05;99971.50;5041624;28;20348;-79
2021/12/04 01:40:29;;;;;;;80.38;27.58;;;;;;;4.56;97.24;99976.59;5040444;28;20052;-79
2021/12/04 01:42:55;;;;;;;77.20;27.73;;;;;;;4.57;97.30;99978.31;5024424;28;20036;-79
2021/12/04 01:45:20;;;;;;;75.82;27.27;;;;;;;4.58;97.02;99972.22;5024873;28;20296;-79
2021/12/04 01:47:46;;;;;;;73.53;26.38;;;;;;;4.58;97.13;99983.44;5024846;28;20083;-79
2021/12/04 01:50:11;;;;;;;75.55;26.63;;;;;;;4.60;97.03;99985.97;5024378;28;20033;-79
2021/12/04 01:52:37;;;;;;;73.40;25.90;;;;;;;4.60;97.15;99985.97;5059153;28;20344;-79
2021/12/04 01:55:03;;;;;;;79.95;28.33;;;;;;;4.58;96.96;99975.66;5041420;28;20073;-79
2021/12/04 01:57:28;;;;;;;86.18;28.10;;;;;;;4.57;97.12;99973.13;5024828;28;20267;-79
2021/12/04 01:59:54;;;;;;;86.25;29.20;;;;;;;4.54;96.96;99965.41;5008384;28;20025;-79
2021/12/04 02:02:19;;;;;;;75.03;27.25;;;;;;;4.55;97.14;99969.72;5024527;28;20095;-79
2021/12/04 02:04:45;;;;;;;78.50;27.77;;;;;;;4.53;97.06;99963.72;5041059;28;20037;-79
2021/12/04 02:07:12;;;;;;;84.70;29.23;;;;;;;4.55;97.19;99951.56;5024231;28;20358;-79
2021/12/04 02:09:37;;;;;;;79.78;28.33;;;;;;;4.55;97.21;99952.41;5057808;28;20109;-79
2021/12/04 02:12:05;;;;;;;78.43;26.08;;;;;;;4.57;97.16;99962.75;5019082;28;20353;-79
2021/12/04 02:14:31;;;;;;;87.40;28.30;;;;;;;4.57;97.17;99955.81;5008506;28;20037;-79
2021/12/04 02:16:57;;;;;;;73.75;26.38;;;;;;;4.56;97.25;99956.69;5024028;28;20025;-79
2021/12/04 02:19:22;;;;;;;81.18;27.38;;;;;;;4.56;97.33;99953.25;5041170;28;20341;-79
2021/12/04 02:21:48;;;;;;;80.43;28.17;;;;;;;4.56;97.23;99959.28;5041947;28;20037;-79
2021/12/04 02:24:13;;;;;;;84.38;26.65;;;;;;;4.57;97.32;99967.94;5045136;28;20082;-79
2021/12/04 02:26:38;;;;;;;71.18;25.90;;;;;;;4.56;97.17;99959.28;5028217;28;20051;-79
2021/12/04 02:29:04;;;;;;;74.68;26.95;;;;;;;4.55;97.25;99957.59;5061284;28;20370;-79
2021/12/04 02:31:29;;;;;;;76.82;26.15;;;;;;;4.57;97.23;99962.75;5044322;28;20054;-79
2021/12/04 02:33:55;;;;;;;73.90;26.38;;;;;;;4.58;97.33;99956.66;5043493;28;20057;-79
2021/12/04 02:36:20;;;;;;;78.47;27.25;;;;;;;4.57;97.25;99952.38;5067186;28;20033;-79
2021/12/04 02:38:50;;;;;;;88.03;27.50;;;;;;;4.59;97.15;99955.75;5028353;28;20047;-79
2021/12/04 02:41:15;;;;;;;74.07;25.83;;;;;;;4.60;97.54;99957.44;5029195;28;20034;-79
2021/12/04 02:43:41;;;;;;;81.30;28.23;;;;;;;4.61;97.41;99953.97;5062367;28;20036;-79
2021/12/04 02:46:06;;;;;;;80.18;26.23;;;;;;;4.60;97.32;99953.13;5044623;28;20142;-79
2021/12/04 02:48:32;;;;;;;80.10;26.42;;;;;;;4.61;97.40;99948.78;5044056;28;20094;-79
2021/12/04 02:50:57;;;;;;;71.85;26.10;;;;;;;4.63;97.45;99957.38;5044591;28;20037;-79
2021/12/04 02:53:23;;;;;;;74.65;25.77;;;;;;;4.62;97.22;99953.09;5026781;28;20033;-79
2021/12/04 02:55:50;;;;;;;75.65;24.80;;;;;;;4.64;97.17;99950.41;5027574;28;20035;-79
2021/12/04 02:58:16;;;;;;;80.03;26.05;;;;;;;4.64;97.07;99946.09;5028842;28;20037;-79
2021/12/04 03:00:47;;;;;;;82.05;27.00;;;;;;;4.64;97.04;99943.50;5027494;28;20120;-79
2021/12/04 03:03:13;;;;;;;80.00;27.05;;;;;;;4.65;97.04;99949.53;5028261;28;20029;-79
2021/12/04 03:05:39;;;;;;;76.22;25.55;;;;;;;4.65;96.96;99936.56;5058252;28;20395;-79
2021/12/04 03:08:07;;;;;;;82.47;27.42;;;;;;;4.66;96.98;99944.31;5058213;28;20041;-79
2021/12/04 03:10:32;;;;;;;88.90;27.85;;;;;;;4.66;96.93;99949.50;5043312;28;20052;-79
2021/12/04 03:12:58;;;;;;;90.53;29.33;;;;;;;4.65;96.83;99947.78;5027341;28;20336;-79
2021/12/04 03:15:23;;;;;;;85.00;26.52;;;;;;;4.65;96.96;99940.00;5027047;28;20045;-79
2021/12/04 03:17:49;;;;;;;87.00;28.40;;;;;;;4.64;96.93;99935.72;5061659;28;20351;-79
2021/12/04 03:20:15;;;;;;;73.13;25.80;;;;;;;4.66;97.06;99933.06;5028405;28;20398;-79
2021/12/04 03:22:41;;;;;;;85.97;28.75;;;;;;;4.65;96.95;99927.03;5043189;28;20049;-79
2021/12/04 03:25:07;;;;;;;89.60;28.00;;;;;;;4.65;96.79;99924.44;5043655;28;20380;-79
2021/12/04 03:27:33;;;;;;;78.55;27.40;;;;;;;4.66;97.04;99926.16;5030998;28;20202;-79
2021/12/04 03:30:03;;;;;;;83.35;26.55;;;;;;;4.65;97.06;99918.41;5060831;28;20040;-79
2021/12/04 03:40:55;;;;;;;84.07;26.75;;;;;;;4.68;97.12;99902.78;5060676;28;20078;-79
2021/12/04 03:43:21;;;;;;;83.15;26.67;;;;;;;4.69;97.00;99901.84;5059685;28;20148;-79
2021/12/04 03:45:52;;;;;;;88.85;29.08;;;;;;;4.70;97.19;99898.38;5074370;28;20025;-79
2021/12/04 03:48:39;;;;;;;94.55;29.80;;;;;;;4.69;97.02;99894.91;5066792;28;20155;-79
2021/12/04 03:51:04;;;;;;;86.70;27.05;;;;;;;4.70;97.00;99899.22;5043985;28;20115;-79
2021/12/04 03:53:30;;;;;;;79.78;27.13;;;;;;;4.70;97.10;99894.03;5031550;28;20036;-79
2021/12/04 03:55:55;;;;;;;84.38;28.08;;;;;;;4.70;96.94;99890.59;5057044;28;20045;-79
2021/12/04 03:58:21;;;;;;;95.45;27.58;;;;;;;4.71;97.25;99887.97;5042326;28;20051;-79
2021/12/04 04:00:46;;;;;;;79.80;26.40;;;;;;;4.72;97.15;99891.41;5025799;28;20063;-79
2021/12/04 04:03:12;;;;;;;84.90;26.95;;;;;;;4.71;97.02;99880.19;5042515;28;20041;-79
2021/12/04 04:05:37;;;;;;;76.30;25.60;;;;;;;4.74;96.97;99889.59;5042199;28;20453;-79
2021/12/04 04:08:03;;;;;;;81.93;25.42;;;;;;;4.73;96.99;99893.94;5025739;28;20041;-79
2021/12/04 04:10:28;;;;;;;84.40;26.95;;;;;;;4.74;96.97;99887.84;5026045;28;20048;-79
2021/12/04 04:12:54;;;;;;;74.15;25.83;;;;;;;4.75;97.04;99886.97;5063630;28;20036;-79
2021/12/04 04:15:21;;;;;;;82.80;27.50;;;;;;;4.74;96.97;99882.66;5073460;28;20047;-79
2021/12/04 04:17:47;;;;;;;77.68;25.92;;;;;;;4.74;97.29;99879.22;5041947;28;20040;-79
2021/12/04 04:20:17;;;;;;;79.57;26.33;;;;;;;4.75;96.95;99884.38;5025719;28;20033;-79
2021/12/04 04:22:43;;;;;;;85.82;26.25;;;;;;;4.75;97.00;99870.56;5058943;28;20090;-79
2021/12/04 04:25:08;;;;;;;72.45;25.42;;;;;;;4.75;97.00;99868.81;5059614;28;20201;-79
2021/12/04 04:27:34;;;;;;;86.32;26.27;;;;;;;4.75;97.06;99866.19;5025191;28;20083;-79
2021/12/04 04:29:59;;;;;;;78.95;26.70;;;;;;;4.76;97.02;99867.88;5024523;28;20086;-79
2021/12/04 04:32:25;;;;;;;80.18;26.65;;;;;;;4.76;97.00;99867.88;5039117;28;20060;-79
2021/12/04 04:34:54;;;;;;;82.80;28.15;;;;;;;4.77;97.13;99867.00;5040858;28;20062;-79
2021/12/04 04:37:28;;;;;;;79.80;27.33;;;;;;;4.76;96.98;99862.69;5029148;28;20105;-79
2021/12/04 05:12:55;;;;;;;69.63;24.45;;;;;;;4.81;97.12;99827.09;5043600;28;20055;-79
2021/12/04 05:15:56;;;;;;;70.35;25.60;;;;;;;4.83;97.05;99831.38;5043936;28;20076;-79
2021/12/04 05:21:06;;;;;;;65.05;24.70;;;;;;;4.83;96.99;99823.59;5043132;28;20033;-79
2021/12/04 05:23:36;;;;;;;71.63;25.80;;;;;;;4.83;96.92;99821.00;5032139;28;20082;-79
2021/12/04 05:26:03;;;;;;;69.95;25.00;;;;;;;4.84;97.05;99812.31;5007774;28;20388;-79
2021/12/04 05:28:29;;;;;;;59.92;23.88;;;;;;;4.85;97.01;99821.81;5058647;28;20048;-79
2021/12/04 05:30:55;;;;;;;66.05;24.33;;;;;;;4.85;97.10;99819.22;5007716;28;20391;-79
2021/12/04 05:33:20;;;;;;;66.72;24.58;;;;;;;4.85;97.02;99830.44;5039361;28;20052;-79
2021/12/04 05:35:48;;;;;;;65.43;24.63;;;;;;;4.83;97.06;99827.03;5040128;28;20123;-79
2021/12/04 05:38:17;;;;;;;65.60;25.30;;;;;;;4.84;96.95;99825.28;5058623;28;20033;-79
2021/12/04 05:40:43;;;;;;;60.35;23.90;;;;;;;4.82;96.98;99825.34;5041362;28;20044;-79
2021/12/04 05:43:08;;;;;;;79.00;27.42;;;;;;;4.81;97.05;99823.66;5023726;28;20055;-79
2021/12/04 05:45:38;;;;;;;71.55;25.23;;;;;;;4.81;97.13;99823.66;5039943;28;20264;-79
2021/12/04 05:53:26;;;;;;;72.28;25.17;;;;;;;4.81;97.03;99802.91;5039464;28;20041;-79
2021/12/04 05:56:00;;;;;;;74.47;24.52;;;;;;;4.81;97.08;99803.72;5018234;28;20033;-79
2021/12/04 05:58:28;;;;;;;76.45;25.05;;;;;;;4.83;97.18;99803.69;5044333;28;20494;-79
2021/12/04 06:00:54;;;;;;;71.63;24.15;;;;;;;4.83;97.07;99801.09;5044074;28;20072;-79
2021/12/04 06:03:20;;;;;;;64.50;22.92;;;;;;;4.84;97.05;99807.13;5011439;28;20041;-79
2021/12/04 06:05:45;;;;;;;63.47;23.63;;;;;;;4.86;97.11;99810.50;5044914;28;20033;-79
2021/12/04 06:08:11;;;;;;;69.05;24.45;;;;;;;4.86;97.08;99813.09;5062197;28;20044;-80
2021/12/04 06:10:37;;;;;;;70.57;23.33;;;;;;;4.84;97.13;99807.13;5062495;28;20040;-79
2021/12/04 06:13:03;;;;;;;70.13;22.58;;;;;;;4.85;96.98;99808.84;5028403;28;20037;-79
2021/12/04 06:15:28;;;;;;;65.97;22.63;;;;;;;4.85;96.81;99798.44;5044344;28;20037;-79
2021/12/04 06:17:55;;;;;;;65.38;23.02;;;;;;;4.85;96.93;99798.44;5027622;28;20029;-79
2021/12/04 06:23:04;;;;;;;68.13;22.77;;;;;;;4.83;96.96;99798.50;5047032;28;20410;-79
2021/12/04 06:25:30;;;;;;;69.72;23.02;;;;;;;4.84;96.89;99804.53;5027256;28;20048;-79
2021/12/04 06:27:56;;;;;;;67.35;22.92;;;;;;;4.83;96.82;99801.09;5044592;28;20057;-79
2021/12/04 06:30:21;;;;;;;73.93;22.08;;;;;;;4.83;96.92;99808.03;5027923;28;20048;-79
2021/12/04 06:32:48;;;;;;;63.65;20.58;;;;;;;4.82;96.92;99804.59;5043177;28;20116;-79
2021/12/04 06:35:14;;;;;;;65.32;21.55;;;;;;;4.81;96.80;99808.94;5025036;28;20029;-79
2021/12/04 06:37:39;;;;;;;61.03;18.85;;;;;;;4.82;96.76;99809.78;5010669;28;20078;-79
2021/12/04 06:40:05;;;;;;;68.10;21.75;;;;;;;4.81;96.84;99808.09;5010833;28;20243;-79
2021/12/04 06:42:31;;;;;;;65.80;20.85;;;;;;;4.83;96.78;99810.63;5061151;28;20033;-79
2021/12/04 06:44:57;;;;;;;69.07;22.00;;;;;;;4.82;96.76;99812.38;5027384;28;20045;-79
2021/12/04 06:47:23;;;;;;;73.80;23.30;;;;;;;4.80;96.65;99814.16;5043327;28;20040;-79
2021/12/04 06:49:50;;;;;;;61.53;21.25;;;;;;;4.78;96.71;99808.19;5026171;28;21194;-79
2021/12/04 06:52:19;;;;;;;66.28;21.55;;;;;;;4.79;96.67;99804.69;5042127;28;20045;-79
2021/12/04 06:55:22;;;;;;;68.45;22.25;;;;;;;4.79;96.78;99802.09;5043954;28;20044;-79
2021/12/04 06:57:40;;;;;;;72.57;22.27;;;;;;;4.81;96.82;99805.50;5031829;28;20044;-79
2021/12/04 07:00:06;;;;;;;64.53;21.15;;;;;;;4.79;96.76;99791.72;5061513;28;20037;-79
2021/12/04 07:02:31;;;;;;;61.55;21.85;;;;;;;4.78;96.67;99792.63;5027026;28;20063;-80
2021/12/04 07:04:57;;;;;;;59.42;19.88;;;;;;;4.78;96.70;99801.25;5010950;28;20183;-80
2021/12/04 07:07:22;;;;;;;57.58;20.45;;;;;;;4.78;96.68;99798.66;5043460;28;20352;-80
2021/12/04 07:09:48;;;;;;;62.63;20.83;;;;;;;4.76;96.63;99790.06;5026801;28;20068;-80
2021/12/04 07:12:13;;;;;;;65.97;20.65;;;;;;;4.77;96.57;99788.34;5042150;28;20025;-79
2021/12/04 07:14:39;;;;;;;59.33;19.60;;;;;;;4.78;96.68;99784.84;5025760;28;20051;-79
2021/12/04 07:17:05;;;;;;;67.47;19.85;;;;;;;4.76;96.62;99784.03;5025493;28;20044;-79
2021/12/04 07:19:30;;;;;;;54.50;19.02;;;;;;;4.75;96.62;99788.38;5025728;28;20029;-79
2021/12/04 07:21:56;;;;;;;55.65;17.67;;;;;;;4.75;96.45;99797.94;5041722;28;20240;-79
2021/12/04 07:24:21;;;;;;;50.78;17.98;;;;;;;4.75;96.55;99796.16;5025249;28;20024;-79
2021/12/04 07:26:47;;;;;;;45.05;17.27;;;;;;;4.72;96.31;99780.69;5043458;28;20189;-80
2021/12/04 07:29:12;;;;;;;56.05;17.73;;;;;;;4.72;96.19;99772.06;5043361;28;20323;-80
2021/12/04 07:31:38;;;;;;;52.13;18.45;;;;;;;4.70;96.15;99764.34;5041442;28;20067;-80
2021/12/04 07:34:04;;;;;;;56.83;17.55;;;;;;;4.70;96.23;99755.72;5038622;28;20252;-80
2021/12/04 07:36:29;;;;;;;64.07;18.73;;;;;;;4.70;96.16;99758.31;5023555;28;20049;-79
2021/12/04 07:38:54;;;;;;;58.03;17.75;;;;;;;4.71;96.28;99758.28;5016104;28;20037;-79
2021/12/04 07:41:20;;;;;;;51.00;17.10;;;;;;;4.72;96.32;99752.16;5025358;28;20317;-79
2021/12/04 07:43:46;;;;;;;41.80;15.40;;;;;;;4.70;96.25;99746.19;5043186;28;20410;-79
2021/12/04 07:46:11;;;;;;;37.33;13.77;;;;;;;4.68;96.01;99748.00;5007768;28;20029;-79
2021/12/04 07:48:37;;;;;;;36.20;13.52;;;;;;;4.66;96.03;99747.19;5018726;28;20032;-79
2021/12/04 07:51:02;;;;;;;27.48;12.38;;;;;;;4.66;96.10;99741.16;5006177;28;20229;-79
2021/12/04 07:53:29;;;;;;;29.42;12.55;;;;;;;4.66;96.21;99739.41;5024202;28;20029;-79
2021/12/04 07:55:54;;;;;;;29.75;11.32;;;;;;;4.67;96.20;99728.13;5016874;28;20029;-79
2021/12/04 07:58:19;;;;;;;27.80;10.57;;;;;;;4.68;96.18;99729.84;5011131;28;20040;-79
2021/12/04 08:00:45;;;;;;;33.38;12.88;;;;;;;4.66;96.17;99721.25;5040317;28;20249;-79
2021/12/04 08:03:10;;;;;;;26.13;11.65;;;;;;;4.66;96.15;99725.59;5019989;28;20041;-79
2021/12/04 08:05:36;;;;;;;31.63;12.73;;;;;;;4.66;96.45;99725.59;5023599;28;20348;-79
2021/12/04 08:08:02;;;;;;;38.17;14.32;;;;;;;4.64;96.16;99725.66;5003414;28;20037;-79
2021/12/04 08:10:28;;;;;;;32.83;12.73;;;;;;;4.61;96.08;99726.59;5017908;28;20055;-79
2021/12/04 08:12:53;;;;;;;30.88;12.80;;;;;;;4.64;96.14;99727.38;5020058;28;20320;-80
2021/12/04 08:15:18;;;;;;;39.88;14.25;;;;;;;4.64;96.16;99720.47;5035590;28;20036;-79
2021/12/04 08:17:44;;;;;;;32.00;13.18;;;;;;;4.65;96.58;99721.31;5019788;28;20025;-79
2021/12/04 08:20:10;;;;;;;37.83;14.75;;;;;;;4.65;96.24;99731.69;5037149;28;20035;-79
2021/12/04 08:22:36;;;;;;;42.78;16.63;;;;;;;4.64;96.33;99738.63;5022762;28;20240;-79
2021/12/04 08:25:02;;;;;;;38.30;14.35;;;;;;;4.61;96.31;99752.53;5021029;28;20032;-79
2021/12/04 08:27:27;;;;;;;38.53;16.17;;;;;;;4.62;96.41;99750.81;5016873;28;20105;-79
2021/12/04 08:29:53;;;;;;;43.08;15.52;;;;;;;4.64;96.30;99748.13;5037214;28;20105;-80
2021/12/04 08:32:22;;;;;;;41.38;15.93;;;;;;;4.65;96.27;99747.25;5008546;28;20360;-79
2021/12/04 08:34:48;;;;;;;33.97;15.73;;;;;;;4.66;96.52;99734.22;5037924;28;20040;-79
2021/12/04 08:37:13;;;;;;;42.45;16.05;;;;;;;4.67;96.20;99737.66;5038568;28;20360;-79
2021/12/04 08:39:39;;;;;;;52.40;17.38;;;;;;;4.66;96.49;99734.22;5036197;28;20032;-79
2021/12/04 08:42:04;;;;;;;42.92;17.75;;;;;;;4.67;96.27;99733.31;5055816;28;20036;-79
2021/12/04 08:44:30;;;;;;;39.70;16.17;;;;;;;4.67;96.36;99735.91;5037566;28;20311;-79
2021/12/04 08:46:56;;;;;;;49.03;17.92;;;;;;;4.68;96.19;99732.44;5036067;28;20029;-79
2021/12/04 08:49:22;;;;;;;39.00;15.75;;;;;;;4.69;96.31;99726.31;5038550;28;20036;-79
2021/12/04 08:51:48;;;;;;;48.75;17.52;;;;;;;4.70;96.24;99725.44;5022981;28;20036;-79
2021/12/04 08:54:14;;;;;;;46.17;18.17;;;;;;;4.72;96.23;99725.41;5021502;28;20333;-79
2021/12/04 08:56:39;;;;;;;40.00;16.35;;;;;;;4.71;96.33;99710.72;5038807;28;20032;-79
2021/12/04 08:59:06;;;;;;;48.00;17.60;;;;;;;4.72;96.21;99710.66;5039102;28;20272;-79
2021/12/04 09:01:34;;;;;;;44.55;17.13;;;;;;;4.73;96.28;99711.50;5057114;28;20087;-79
2021/12/04 09:04:23;;;;;;;52.83;18.27;;;;;;;4.71;96.30;99709.00;5039010;28;20331;-79
2021/12/04 09:06:50;;;;;;;59.03;19.02;;;;;;;4.73;96.32;99706.31;5022855;28;20252;-79
2021/12/04 09:09:16;;;;;;;52.88;18.20;;;;;;;4.73;96.24;99706.31;5023225;28;20044;-79
2021/12/04 09:11:47;;;;;;;46.78;19.60;;;;;;;4.73;96.39;99709.78;5005605;28;20028;-80
2021/12/04 09:14:14;;;;;;;45.15;17.75;;;;;;;4.75;96.39;99720.09;5022570;28;20064;-79
2021/12/04 09:16:39;;;;;;;54.35;17.80;;;;;;;4.76;96.45;99706.22;5039202;28;20305;-79
2021/12/04 09:19:05;;;;;;;57.58;20.02;;;;;;;4.75;96.50;99695.00;5030245;28;20032;-79
2021/12/04 09:21:31;;;;;;;55.10;18.92;;;;;;;4.78;96.54;99701.81;5002150;28;20194;-80
2021/12/04 09:24:10;;;;;;;52.05;18.23;;;;;;;4.77;96.49;99705.34;5008536;28;20040;-79
2021/12/04 09:31:48;;;;;;;54.25;18.65;;;;;;;4.84;96.62;99685.19;5056957;28;20061;-79
2021/12/04 09:37:02;;;;;;;54.58;19.88;;;;;;;4.84;96.49;99677.41;5048742;28;20056;-79
2021/12/04 10:15:16;;;;;;;67.90;21.52;;;;;;;4.89;96.93;99629.66;5039694;28;20285;-80
2021/12/04 10:18:00;;;;;;;64.15;21.35;;;;;;;4.92;96.81;99639.09;5038408;28;20044;-79
2021/12/04 10:33:54;;;;;;;54.22;19.38;;;;;;;4.99;97.02;99643.97;5022062;28;20317;-79
2021/12/04 10:36:35;;;;;;;62.13;20.75;;;;;;;5.00;96.92;99652.59;5029364;28;20032;-79
2021/12/04 10:39:01;;;;;;;50.08;17.80;;;;;;;5.01;97.00;99646.53;5026299;28;20056;-79
2021/12/04 10:41:29;;;;;;;54.35;19.00;;;;;;;5.00;97.25;99640.50;5034612;28;20083;-79
2021/12/04 10:43:55;;;;;;;59.50;20.20;;;;;;;5.01;97.09;99646.53;5023111;28;20044;-79
2021/12/04 10:46:22;;;;;;;56.83;19.70;;;;;;;5.01;97.04;99643.94;5007647;28;20297;-79
2021/12/04 10:48:51;;;;;;;69.78;21.67;;;;;;;5.00;97.03;99643.09;5018742;28;20079;-79
2021/12/04 10:53:49;;;;;;;82.45;22.85;;;;;;;4.99;96.91;99643.97;5058855;28;20160;-79
2021/12/04 11:04:42;;;;;;;85.65;26.42;;;;;;;4.98;96.91;99626.75;5015352;28;20513;-80
2021/12/04 11:45:04;;;;;;;95.15;25.63;;;;;;;5.06;97.15;99560.69;5041798;28;20045;-80
2021/12/04 11:47:40;;;;;;;92.70;26.40;;;;;;;5.06;97.24;99547.72;5040788;28;20108;-80
2021/12/04 11:50:22;;;;;;;91.20;26.83;;;;;;;5.08;97.32;99546.78;5020800;28;20043;-80
2021/12/04 11:52:49;;;;;;;85.72;24.92;;;;;;;5.08;97.33;99539.00;5040060;28;20328;-79
2021/12/04 11:55:15;;;;;;;89.65;26.80;;;;;;;5.09;97.17;99548.47;5022448;28;20086;-79
2021/12/04 11:57:41;;;;;;;82.50;25.52;;;;;;;5.11;97.27;99544.06;5022483;28;20021;-80
2021/12/04 12:00:22;;;;;;;87.53;25.77;;;;;;;5.11;97.23;99563.97;5019287;28;20063;-80
2021/12/04 12:02:48;;;;;;;82.00;24.00;;;;;;;5.09;97.33;99569.22;5035784;28;20044;-80
2021/12/04 12:05:16;;;;;;;81.78;25.30;;;;;;;5.08;97.36;99558.91;5056284;28;20340;-80
2021/12/04 12:07:54;;;;;;;85.40;25.85;;;;;;;5.07;97.51;99550.28;5005049;28;20031;-80
2021/12/04 12:10:19;;;;;;;73.45;23.98;;;;;;;5.05;97.44;99552.09;5021683;28;20028;-79
2021/12/04 12:12:46;;;;;;;83.88;24.30;;;;;;;5.06;97.43;99548.59;5055244;28;20044;-80
2021/12/04 12:15:31;;;;;;;76.85;23.30;;;;;;;5.07;97.71;99544.25;5052314;28;20123;-80
2021/12/04 12:18:08;;;;;;;74.63;22.40;;;;;;;5.07;97.62;99533.88;5035741;28;20332;-80
2021/12/04 12:20:47;;;;;;;70.43;22.10;;;;;;;5.07;97.79;99532.09;5035868;28;20250;-80
2021/12/04 12:23:16;;;;;;;65.32;20.38;;;;;;;5.08;97.89;99530.38;5022943;28;20037;-80
2021/12/04 12:34:07;;;;;;;46.25;15.30;;;;;;;5.08;97.89;99513.03;5022962;28;20044;-80
2021/12/04 12:36:33;;;;;;;41.65;14.65;;;;;;;5.09;97.97;99512.13;5037579;28;20039;-80
2021/12/04 12:39:15;;;;;;;35.97;14.57;;;;;;;5.11;97.89;99512.06;4999820;28;20243;-80
2021/12/04 12:41:42;;;;;;;38.25;14.07;;;;;;;5.11;97.85;99507.75;5021049;28;20111;-79
2021/12/04 12:44:08;;;;;;;42.15;13.57;;;;;;;5.12;97.92;99508.59;5053093;28;20336;-80
2021/12/04 12:46:47;;;;;;;29.73;12.95;;;;;;;5.12;97.72;99506.00;5036134;28;20319;-80
2021/12/04 12:49:19;;;;;;;33.60;12.50;;;;;;;5.12;97.67;99513.78;5016346;28;20321;-80
2021/12/04 12:51:55;;;;;;;26.80;11.55;;;;;;;5.12;97.76;99512.00;5016161;28;20058;-80
2021/12/04 12:54:32;;;;;;;28.48;11.90;;;;;;;5.11;97.91;99514.66;5017843;28;20063;-80
2021/12/04 12:57:20;;;;;;;25.73;11.88;;;;;;;5.11;97.71;99509.47;5034342;28;20465;-80
2021/12/04 13:11:35;;;;;;;29.67;12.18;;;;;;;5.10;97.70;99500.00;5046967;28;20036;-80
2021/12/04 13:13:53;;;;;;;12.75;5.95;;;;;;;5.08;97.97;99513.03;5022101;28;20027;-80
2021/12/04 13:16:21;;;;;;;11.70;4.88;;;;;;;5.08;97.94;99515.66;5032959;28;20327;-80
2021/12/04 13:18:57;;;;;;;7.80;2.93;;;;;;;5.10;97.90;99520.78;5001119;28;20229;-80
2021/12/04 13:21:24;;;;;;;4.18;1.70;;;;;;;5.10;97.81;99524.22;5019325;28;20036;-80
2021/12/04 13:23:51;;;;;;;6.88;1.77;;;;;;;5.09;97.66;99521.66;5022032;28;20056;-80
2021/12/04 13:26:16;;;;;;;3.83;0.95;;;;;;;5.08;97.51;99532.97;5051002;28;20041;-80
2021/12/04 13:28:44;;;;;;;4.07;0.70;;;;;;;5.06;97.41;99530.44;5049479;28;20424;-80
2021/12/04 13:31:09;;;;;;;2.15;0.70;;;;;;;5.05;97.12;99530.47;5021397;28;20060;-80
2021/12/04 13:33:37;;;;;;;3.08;0.47;;;;;;;5.04;96.95;99527.06;5025802;28;20033;-80
2021/12/04 13:36:03;;;;;;;6.57;1.23;;;;;;;5.02;96.77;99526.28;5004376;28;20025;-80
2021/12/04 13:38:29;;;;;;;1.52;0.60;;;;;;;5.03;96.76;99529.72;5015929;28;20339;-80
2021/12/04 13:40:54;;;;;;;3.10;0.55;;;;;;;5.03;96.84;99533.13;5047685;28;20232;-80
2021/12/04 13:43:23;;;;;;;6.13;0.80;;;;;;;5.02;96.67;99536.66;5018114;28;20048;-80
2021/12/04 13:45:59;;;;;;;6.20;0.88;;;;;;;5.03;96.81;99542.69;5002714;28;20044;-80
2021/12/04 13:48:25;;;;;;;3.10;0.50;;;;;;;5.03;96.70;99538.31;5001435;28;20245;-80
2021/12/04 13:50:51;;;;;;;1.90;0.70;;;;;;;5.04;96.79;99545.22;5018702;28;20359;-80
2021/12/04 13:53:30;;;;;;;7.78;0.90;;;;;;;5.04;96.79;99540.03;5035593;28;20350;-80
2021/12/04 13:56:03;;;;;;;4.47;0.60;;;;;;;5.06;96.88;99542.53;5035302;28;20205;-80
2021/12/04 13:58:29;;;;;;;4.53;0.60;;;;;;;5.06;96.92;99548.59;5018459;28;20086;-80
2021/12/04 14:00:54;;;;;;;5.03;0.70;;;;;;;5.08;96.94;99548.53;5014761;28;20033;-80
2021/12/04 14:03:22;;;;;;;9.60;1.60;;;;;;;5.08;96.85;99543.34;5051767;28;20112;-80
2021/12/04 14:05:47;;;;;;;3.30;0.55;;;;;;;5.08;96.77;99557.16;5037634;28;20331;-80
2021/12/04 14:08:13;;;;;;;7.88;1.13;;;;;;;5.08;96.79;99556.31;5019964;28;20103;-80
2021/12/04 14:10:41;;;;;;;1.85;0.70;;;;;;;5.07;96.68;99560.66;5054576;28;20315;-80
2021/12/04 14:13:07;;;;;;;5.43;0.80;;;;;;;5.07;96.57;99560.66;5004456;28;20068;-80
2021/12/04 14:15:33;;;;;;;6.57;0.85;;;;;;;5.07;96.61;99559.81;5022845;28;20052;-80
2021/12/04 14:18:09;;;;;;;3.70;0.88;;;;;;;5.06;96.58;99555.50;5038046;28;20039;-80
2021/12/04 14:20:35;;;;;;;1.50;0.68;;;;;;;5.08;96.95;99564.94;5017079;28;20036;-80
2021/12/04 14:23:01;;;;;;;2.00;0.70;;;;;;;5.08;96.62;99577.91;5040400;28;20047;-80
2021/12/04 14:25:26;;;;;;;4.63;0.85;;;;;;;5.09;96.71;99582.19;5039914;28;20104;-80
2021/12/04 14:27:53;;;;;;;3.75;1.27;;;;;;;5.08;96.85;99577.09;5057274;28;20210;-80
2021/12/04 14:30:21;;;;;;;3.70;0.82;;;;;;;5.08;96.95;99580.53;5023781;28;20047;-80
2021/12/04 14:32:52;;;;;;;2.58;0.93;;;;;;;5.10;96.86;99585.66;5029659;28;20061;-80
2021/12/04 14:35:18;;;;;;;4.53;0.82;;;;;;;5.08;96.95;99588.31;5047673;28;20056;-80
2021/12/04 14:37:45;;;;;;;5.93;1.33;;;;;;;5.10;97.01;99585.66;5023976;28;20082;-80